Kirkburton, United Kingdom
Current Conditions -  °F | °C
As of 4:20 PM on Saturday 25 Oct 2014 (Local Time) from EGNM Reporting Station
Scattered Clouds Scattered Clouds  
Wind Chill: 54°   Ceiling: Unl
Heat Index: 54°   Visibility: 6mi
Dew Point: 46°   Wind: 8mph
Humidity: 77%   Direction: 230°SW
Pressure: 29.88"   Gusts: NA
Location:  53.61°N, 1.7°W
Report Text: EGNM 251520Z 23007KT 200V270 9999 FEW018 SCT038 12/08 Q1012
Loading
Personal Weather Stations






























Interactive Weather Map
Tropical Storm Tracking
New forecast layout! Learn more

10-Day Weather Forecast

Advertisements
Track Severe Weather on mobile